sensor_id;sensor_type;location;lat;lon;timestamp;P1;durP1;ratioP1;P2;durP2;ratioP2
54464;SDS011;40374;49.480;20.016;2023-03-01T00:00:05;260.23;;;88.70;;
54464;SDS011;40374;49.480;20.016;2023-03-01T00:02:57;263.95;;;93.90;;
54464;SDS011;40374;49.480;20.016;2023-03-01T00:05:24;242.35;;;86.40;;
54464;SDS011;40374;49.480;20.016;2023-03-01T00:07:52;244.75;;;83.97;;
54464;SDS011;40374;49.480;20.016;2023-03-01T00:10:20;255.57;;;91.88;;
54464;SDS011;40374;49.480;20.016;2023-03-01T00:12:47;243.77;;;86.95;;
54464;SDS011;40374;49.480;20.016;2023-03-01T00:15:15;237.13;;;83.22;;
54464;SDS011;40374;49.480;20.016;2023-03-01T00:17:42;236.43;;;80.80;;
54464;SDS011;40374;49.480;20.016;2023-03-01T00:20:10;216.68;;;75.35;;
54464;SDS011;40374;49.480;20.016;2023-03-01T00:22:38;207.40;;;74.47;;
54464;SDS011;40374;49.480;20.016;2023-03-01T00:25:05;227.82;;;75.07;;
54464;SDS011;40374;49.480;20.016;2023-03-01T00:27:32;206.65;;;67.60;;
54464;SDS011;40374;49.480;20.016;2023-03-01T00:30:00;204.20;;;68.55;;
54464;SDS011;40374;49.480;20.016;2023-03-01T00:32:28;221.13;;;70.03;;
54464;SDS011;40374;49.480;20.016;2023-03-01T00:34:56;200.43;;;66.22;;
54464;SDS011;40374;49.480;20.016;2023-03-01T00:37:23;207.77;;;69.20;;
54464;SDS011;40374;49.480;20.016;2023-03-01T00:39:51;207.30;;;69.28;;
54464;SDS011;40374;49.480;20.016;2023-03-01T00:42:18;219.60;;;69.93;;
54464;SDS011;40374;49.480;20.016;2023-03-01T00:44:46;201.20;;;69.38;;
54464;SDS011;40374;49.480;20.016;2023-03-01T00:47:14;205.90;;;67.70;;
54464;SDS011;40374;49.480;20.016;2023-03-01T00:49:42;205.05;;;70.35;;
54464;SDS011;40374;49.480;20.016;2023-03-01T00:52:09;215.13;;;71.45;;
54464;SDS011;40374;49.480;20.016;2023-03-01T00:54:37;240.20;;;75.70;;
54464;SDS011;40374;49.480;20.016;2023-03-01T00:57:05;229.43;;;74.78;;
54464;SDS011;40374;49.480;20.016;2023-03-01T00:59:32;222.93;;;70.32;;
54464;SDS011;40374;49.480;20.016;2023-03-01T01:01:59;218.32;;;68.00;;
54464;SDS011;40374;49.480;20.016;2023-03-01T01:04:27;207.70;;;67.28;;
54464;SDS011;40374;49.480;20.016;2023-03-01T01:06:54;217.60;;;68.72;;
54464;SDS011;40374;49.480;20.016;2023-03-01T01:09:22;219.63;;;73.32;;
54464;SDS011;40374;49.480;20.016;2023-03-01T01:11:50;221.77;;;69.65;;
54464;SDS011;40374;49.480;20.016;2023-03-01T01:14:19;206.23;;;70.55;;
54464;SDS011;40374;49.480;20.016;2023-03-01T01:16:47;232.18;;;73.53;;
54464;SDS011;40374;49.480;20.016;2023-03-01T01:19:15;227.18;;;76.38;;
54464;SDS011;40374;49.480;20.016;2023-03-01T01:21:43;227.63;;;74.63;;
54464;SDS011;40374;49.480;20.016;2023-03-01T01:24:11;232.63;;;76.50;;
54464;SDS011;40374;49.480;20.016;2023-03-01T01:26:39;230.02;;;76.45;;
54464;SDS011;40374;49.480;20.016;2023-03-01T01:29:07;205.45;;;77.22;;
54464;SDS011;40374;49.480;20.016;2023-03-01T01:31:35;211.98;;;75.53;;
54464;SDS011;40374;49.480;20.016;2023-03-01T01:34:06;207.25;;;75.00;;
54464;SDS011;40374;49.480;20.016;2023-03-01T01:36:37;235.13;;;75.07;;
54464;SDS011;40374;49.480;20.016;2023-03-01T01:39:04;220.82;;;72.97;;
54464;SDS011;40374;49.480;20.016;2023-03-01T01:41:31;217.60;;;75.13;;
54464;SDS011;40374;49.480;20.016;2023-03-01T01:44:12;213.10;;;72.07;;
54464;SDS011;40374;49.480;20.016;2023-03-01T01:46:42;214.27;;;74.35;;
54464;SDS011;40374;49.480;20.016;2023-03-01T01:51:49;217.02;;;74.47;;
54464;SDS011;40374;49.480;20.016;2023-03-01T01:54:31;220.95;;;74.60;;
54464;SDS011;40374;49.480;20.016;2023-03-01T01:57:07;266.92;;;86.00;;
54464;SDS011;40374;49.480;20.016;2023-03-01T01:59:40;285.98;;;93.43;;
54464;SDS011;40374;49.480;20.016;2023-03-01T02:02:12;254.02;;;86.88;;
54464;SDS011;40374;49.480;20.016;2023-03-01T02:04:40;257.05;;;89.57;;
54464;SDS011;40374;49.480;20.016;2023-03-01T02:07:21;281.90;;;90.50;;
54464;SDS011;40374;49.480;20.016;2023-03-01T02:09:51;238.52;;;83.55;;
54464;SDS011;40374;49.480;20.016;2023-03-01T02:12:20;232.20;;;77.40;;
54464;SDS011;40374;49.480;20.016;2023-03-01T02:14:51;214.77;;;69.28;;
54464;SDS011;40374;49.480;20.016;2023-03-01T02:17:18;194.57;;;65.82;;
54464;SDS011;40374;49.480;20.016;2023-03-01T02:22:36;195.07;;;63.58;;
54464;SDS011;40374;49.480;20.016;2023-03-01T02:25:09;189.13;;;60.72;;
54464;SDS011;40374;49.480;20.016;2023-03-01T02:30:48;196.73;;;60.78;;
54464;SDS011;40374;49.480;20.016;2023-03-01T02:33:36;169.43;;;58.83;;
54464;SDS011;40374;49.480;20.016;2023-03-01T02:36:07;185.55;;;61.20;;
54464;SDS011;40374;49.480;20.016;2023-03-01T02:38:38;203.65;;;62.85;;
54464;SDS011;40374;49.480;20.016;2023-03-01T02:41:07;194.50;;;65.30;;
54464;SDS011;40374;49.480;20.016;2023-03-01T02:43:38;185.82;;;61.58;;
54464;SDS011;40374;49.480;20.016;2023-03-01T02:46:07;180.10;;;65.90;;
54464;SDS011;40374;49.480;20.016;2023-03-01T02:48:44;204.73;;;65.50;;
54464;SDS011;40374;49.480;20.016;2023-03-01T02:56:45;198.05;;;63.17;;
54464;SDS011;40374;49.480;20.016;2023-03-01T02:59:19;199.60;;;66.90;;
54464;SDS011;40374;49.480;20.016;2023-03-01T03:01:49;207.20;;;67.75;;
54464;SDS011;40374;49.480;20.016;2023-03-01T03:04:17;209.48;;;67.47;;
54464;SDS011;40374;49.480;20.016;2023-03-01T03:06:49;198.98;;;68.03;;
54464;SDS011;40374;49.480;20.016;2023-03-01T03:09:17;206.77;;;65.93;;
54464;SDS011;40374;49.480;20.016;2023-03-01T03:11:46;207.23;;;67.82;;
54464;SDS011;40374;49.480;20.016;2023-03-01T03:14:14;230.63;;;69.85;;
54464;SDS011;40374;49.480;20.016;2023-03-01T03:16:46;197.23;;;69.53;;
54464;SDS011;40374;49.480;20.016;2023-03-01T03:19:16;204.13;;;69.18;;
54464;SDS011;40374;49.480;20.016;2023-03-01T03:21:45;204.75;;;66.45;;
54464;SDS011;40374;49.480;20.016;2023-03-01T03:24:12;212.80;;;63.65;;
54464;SDS011;40374;49.480;20.016;2023-03-01T03:26:40;205.13;;;68.63;;
54464;SDS011;40374;49.480;20.016;2023-03-01T03:29:07;201.70;;;68.20;;
54464;SDS011;40374;49.480;20.016;2023-03-01T03:31:35;216.40;;;71.40;;
54464;SDS011;40374;49.480;20.016;2023-03-01T03:34:02;213.40;;;73.63;;
54464;SDS011;40374;49.480;20.016;2023-03-01T03:36:29;227.63;;;75.15;;
54464;SDS011;40374;49.480;20.016;2023-03-01T03:38:57;208.93;;;60.40;;
54464;SDS011;40374;49.480;20.016;2023-03-01T03:41:24;204.00;;;67.00;;
54464;SDS011;40374;49.480;20.016;2023-03-01T03:43:52;192.98;;;62.75;;
54464;SDS011;40374;49.480;20.016;2023-03-01T03:46:19;185.38;;;60.60;;
54464;SDS011;40374;49.480;20.016;2023-03-01T03:48:46;196.80;;;63.92;;
54464;SDS011;40374;49.480;20.016;2023-03-01T03:51:15;180.15;;;56.85;;
54464;SDS011;40374;49.480;20.016;2023-03-01T03:53:44;202.75;;;61.72;;
54464;SDS011;40374;49.480;20.016;2023-03-01T03:56:12;199.52;;;65.25;;
54464;SDS011;40374;49.480;20.016;2023-03-01T03:58:40;199.65;;;65.07;;
54464;SDS011;40374;49.480;20.016;2023-03-01T04:01:07;198.00;;;64.07;;
54464;SDS011;40374;49.480;20.016;2023-03-01T04:03:34;191.80;;;68.53;;
54464;SDS011;40374;49.480;20.016;2023-03-01T04:06:02;215.75;;;69.97;;
54464;SDS011;40374;49.480;20.016;2023-03-01T04:08:30;252.32;;;82.25;;
54464;SDS011;40374;49.480;20.016;2023-03-01T04:11:02;217.70;;;71.75;;
54464;SDS011;40374;49.480;20.016;2023-03-01T04:13:51;211.88;;;66.07;;
54464;SDS011;40374;49.480;20.016;2023-03-01T04:16:21;193.48;;;64.15;;
54464;SDS011;40374;49.480;20.016;2023-03-01T04:18:48;214.75;;;68.47;;
54464;SDS011;40374;49.480;20.016;2023-03-01T04:21:16;216.63;;;68.32;;
54464;SDS011;40374;49.480;20.016;2023-03-01T04:23:43;242.43;;;73.82;;
54464;SDS011;40374;49.480;20.016;2023-03-01T04:26:11;256.33;;;84.72;;
54464;SDS011;40374;49.480;20.016;2023-03-01T04:28:39;289.77;;;88.30;;
54464;SDS011;40374;49.480;20.016;2023-03-01T04:31:13;261.35;;;81.60;;
54464;SDS011;40374;49.480;20.016;2023-03-01T04:36:15;185.13;;;56.60;;
54464;SDS011;40374;49.480;20.016;2023-03-01T04:38:43;167.35;;;56.20;;
54464;SDS011;40374;49.480;20.016;2023-03-01T04:41:17;196.85;;;58.42;;
54464;SDS011;40374;49.480;20.016;2023-03-01T04:43:45;196.43;;;59.88;;
54464;SDS011;40374;49.480;20.016;2023-03-01T04:46:14;201.05;;;64.53;;
54464;SDS011;40374;49.480;20.016;2023-03-01T04:48:43;196.65;;;63.88;;
54464;SDS011;40374;49.480;20.016;2023-03-01T04:51:14;204.07;;;60.95;;
54464;SDS011;40374;49.480;20.016;2023-03-01T04:53:42;173.18;;;54.53;;
54464;SDS011;40374;49.480;20.016;2023-03-01T04:56:11;187.20;;;54.60;;
54464;SDS011;40374;49.480;20.016;2023-03-01T04:58:40;166.73;;;52.72;;
54464;SDS011;40374;49.480;20.016;2023-03-01T05:01:12;176.00;;;53.90;;
54464;SDS011;40374;49.480;20.016;2023-03-01T05:03:42;149.55;;;50.60;;
54464;SDS011;40374;49.480;20.016;2023-03-01T05:06:11;162.02;;;53.13;;
54464;SDS011;40374;49.480;20.016;2023-03-01T05:08:39;167.50;;;53.13;;
54464;SDS011;40374;49.480;20.016;2023-03-01T05:11:07;170.27;;;55.40;;
54464;SDS011;40374;49.480;20.016;2023-03-01T05:13:36;178.05;;;55.50;;
54464;SDS011;40374;49.480;20.016;2023-03-01T05:16:05;172.73;;;54.92;;
54464;SDS011;40374;49.480;20.016;2023-03-01T05:18:33;183.73;;;58.63;;
54464;SDS011;40374;49.480;20.016;2023-03-01T05:21:02;188.27;;;62.00;;
54464;SDS011;40374;49.480;20.016;2023-03-01T05:23:32;175.88;;;55.03;;
54464;SDS011;40374;49.480;20.016;2023-03-01T05:26:00;184.95;;;55.17;;
54464;SDS011;40374;49.480;20.016;2023-03-01T05:28:32;193.65;;;56.03;;
54464;SDS011;40374;49.480;20.016;2023-03-01T05:30:59;170.85;;;54.42;;
54464;SDS011;40374;49.480;20.016;2023-03-01T05:33:27;176.80;;;55.08;;
54464;SDS011;40374;49.480;20.016;2023-03-01T05:35:59;176.82;;;55.10;;
54464;SDS011;40374;49.480;20.016;2023-03-01T05:38:27;176.98;;;61.92;;
54464;SDS011;40374;49.480;20.016;2023-03-01T05:40:54;181.07;;;57.45;;
54464;SDS011;40374;49.480;20.016;2023-03-01T05:43:22;192.52;;;59.47;;
54464;SDS011;40374;49.480;20.016;2023-03-01T05:45:49;171.77;;;56.65;;
54464;SDS011;40374;49.480;20.016;2023-03-01T05:48:17;202.57;;;61.53;;
54464;SDS011;40374;49.480;20.016;2023-03-01T05:50:46;177.75;;;61.20;;
54464;SDS011;40374;49.480;20.016;2023-03-01T05:53:18;176.95;;;58.33;;
54464;SDS011;40374;49.480;20.016;2023-03-01T05:55:50;184.00;;;59.60;;
54464;SDS011;40374;49.480;20.016;2023-03-01T05:58:18;174.40;;;62.05;;
54464;SDS011;40374;49.480;20.016;2023-03-01T06:00:47;205.45;;;63.45;;
54464;SDS011;40374;49.480;20.016;2023-03-01T06:03:16;238.95;;;82.55;;
54464;SDS011;40374;49.480;20.016;2023-03-01T06:05:44;251.27;;;95.00;;
54464;SDS011;40374;49.480;20.016;2023-03-01T06:08:12;238.65;;;89.78;;
54464;SDS011;40374;49.480;20.016;2023-03-01T06:10:40;230.30;;;81.30;;
54464;SDS011;40374;49.480;20.016;2023-03-01T06:13:07;241.65;;;84.60;;
54464;SDS011;40374;49.480;20.016;2023-03-01T06:15:35;247.88;;;86.28;;
54464;SDS011;40374;49.480;20.016;2023-03-01T06:18:02;221.52;;;80.43;;
54464;SDS011;40374;49.480;20.016;2023-03-01T06:20:30;231.55;;;75.82;;
54464;SDS011;40374;49.480;20.016;2023-03-01T06:22:57;182.57;;;65.38;;
54464;SDS011;40374;49.480;20.016;2023-03-01T06:25:27;174.93;;;65.43;;
54464;SDS011;40374;49.480;20.016;2023-03-01T06:27:54;224.32;;;81.32;;
54464;SDS011;40374;49.480;20.016;2023-03-01T06:30:22;182.80;;;63.08;;
54464;SDS011;40374;49.480;20.016;2023-03-01T06:32:52;184.00;;;65.03;;
54464;SDS011;40374;49.480;20.016;2023-03-01T06:35:27;216.30;;;80.03;;
54464;SDS011;40374;49.480;20.016;2023-03-01T06:37:57;240.55;;;82.32;;
54464;SDS011;40374;49.480;20.016;2023-03-01T06:40:26;224.60;;;82.63;;
54464;SDS011;40374;49.480;20.016;2023-03-01T06:42:56;192.35;;;75.25;;
54464;SDS011;40374;49.480;20.016;2023-03-01T06:45:24;215.73;;;73.35;;
54464;SDS011;40374;49.480;20.016;2023-03-01T06:47:51;189.60;;;72.35;;
54464;SDS011;40374;49.480;20.016;2023-03-01T06:50:19;187.73;;;71.75;;
54464;SDS011;40374;49.480;20.016;2023-03-01T06:52:46;203.15;;;71.85;;
54464;SDS011;40374;49.480;20.016;2023-03-01T06:55:15;199.38;;;72.93;;
54464;SDS011;40374;49.480;20.016;2023-03-01T06:57:42;207.95;;;77.75;;
54464;SDS011;40374;49.480;20.016;2023-03-01T07:00:10;205.43;;;74.72;;
54464;SDS011;40374;49.480;20.016;2023-03-01T07:02:37;195.52;;;71.03;;
54464;SDS011;40374;49.480;20.016;2023-03-01T07:05:05;186.10;;;64.22;;
54464;SDS011;40374;49.480;20.016;2023-03-01T07:07:33;177.18;;;63.45;;
54464;SDS011;40374;49.480;20.016;2023-03-01T07:10:01;148.23;;;56.42;;
54464;SDS011;40374;49.480;20.016;2023-03-01T07:12:29;142.98;;;52.60;;
54464;SDS011;40374;49.480;20.016;2023-03-01T07:14:56;146.57;;;53.88;;
54464;SDS011;40374;49.480;20.016;2023-03-01T07:17:24;129.02;;;50.40;;
54464;SDS011;40374;49.480;20.016;2023-03-01T07:19:51;132.25;;;47.15;;
54464;SDS011;40374;49.480;20.016;2023-03-01T07:22:19;131.13;;;50.15;;
54464;SDS011;40374;49.480;20.016;2023-03-01T07:24:49;135.27;;;52.63;;
54464;SDS011;40374;49.480;20.016;2023-03-01T07:27:16;146.00;;;55.42;;
54464;SDS011;40374;49.480;20.016;2023-03-01T07:29:44;145.90;;;57.10;;
54464;SDS011;40374;49.480;20.016;2023-03-01T07:32:11;127.93;;;49.38;;
54464;SDS011;40374;49.480;20.016;2023-03-01T07:34:39;143.65;;;52.17;;
54464;SDS011;40374;49.480;20.016;2023-03-01T07:37:06;134.63;;;50.42;;
54464;SDS011;40374;49.480;20.016;2023-03-01T07:39:34;127.00;;;50.47;;
54464;SDS011;40374;49.480;20.016;2023-03-01T07:42:01;118.00;;;46.45;;
54464;SDS011;40374;49.480;20.016;2023-03-01T07:44:29;104.82;;;41.58;;
54464;SDS011;40374;49.480;20.016;2023-03-01T07:46:56;89.88;;;36.58;;
54464;SDS011;40374;49.480;20.016;2023-03-01T07:49:25;94.93;;;39.10;;
54464;SDS011;40374;49.480;20.016;2023-03-01T07:51:56;94.10;;;34.72;;
54464;SDS011;40374;49.480;20.016;2023-03-01T07:54:27;88.38;;;36.17;;
54464;SDS011;40374;49.480;20.016;2023-03-01T07:56:55;88.18;;;33.92;;
54464;SDS011;40374;49.480;20.016;2023-03-01T07:59:24;75.55;;;31.45;;
54464;SDS011;40374;49.480;20.016;2023-03-01T08:01:56;81.18;;;30.40;;
54464;SDS011;40374;49.480;20.016;2023-03-01T08:04:25;68.63;;;30.75;;
54464;SDS011;40374;49.480;20.016;2023-03-01T08:06:54;72.85;;;29.63;;
54464;SDS011;40374;49.480;20.016;2023-03-01T08:09:22;64.15;;;28.98;;
54464;SDS011;40374;49.480;20.016;2023-03-01T08:11:49;66.15;;;27.95;;
54464;SDS011;40374;49.480;20.016;2023-03-01T08:14:17;62.17;;;28.33;;
54464;SDS011;40374;49.480;20.016;2023-03-01T08:16:44;68.35;;;29.23;;
54464;SDS011;40374;49.480;20.016;2023-03-01T08:19:12;75.50;;;32.17;;
54464;SDS011;40374;49.480;20.016;2023-03-01T08:21:39;86.57;;;36.78;;
54464;SDS011;40374;49.480;20.016;2023-03-01T08:24:07;78.05;;;34.38;;
54464;SDS011;40374;49.480;20.016;2023-03-01T08:26:37;70.90;;;31.85;;
54464;SDS011;40374;49.480;20.016;2023-03-01T08:29:04;78.00;;;36.47;;
54464;SDS011;40374;49.480;20.016;2023-03-01T08:31:36;71.75;;;32.60;;
54464;SDS011;40374;49.480;20.016;2023-03-01T08:34:07;81.18;;;32.50;;
54464;SDS011;40374;49.480;20.016;2023-03-01T08:36:40;89.20;;;34.13;;
54464;SDS011;40374;49.480;20.016;2023-03-01T08:39:11;76.60;;;33.10;;
54464;SDS011;40374;49.480;20.016;2023-03-01T08:41:40;72.53;;;32.15;;
54464;SDS011;40374;49.480;20.016;2023-03-01T08:44:09;80.13;;;36.28;;
54464;SDS011;40374;49.480;20.016;2023-03-01T08:46:39;79.07;;;35.97;;
54464;SDS011;40374;49.480;20.016;2023-03-01T08:49:10;81.65;;;34.60;;
54464;SDS011;40374;49.480;20.016;2023-03-01T08:51:39;75.38;;;36.30;;
54464;SDS011;40374;49.480;20.016;2023-03-01T08:54:09;73.68;;;33.88;;
54464;SDS011;40374;49.480;20.016;2023-03-01T08:56:39;72.47;;;31.95;;
54464;SDS011;40374;49.480;20.016;2023-03-01T08:59:06;67.30;;;32.10;;
54464;SDS011;40374;49.480;20.016;2023-03-01T09:01:34;65.03;;;32.25;;
54464;SDS011;40374;49.480;20.016;2023-03-01T09:04:01;83.55;;;34.88;;
54464;SDS011;40374;49.480;20.016;2023-03-01T09:06:30;85.45;;;36.03;;
54464;SDS011;40374;49.480;20.016;2023-03-01T09:09:00;80.95;;;37.38;;
54464;SDS011;40374;49.480;20.016;2023-03-01T09:11:28;97.45;;;39.53;;
54464;SDS011;40374;49.480;20.016;2023-03-01T09:13:55;92.57;;;37.80;;
54464;SDS011;40374;49.480;20.016;2023-03-01T09:16:23;82.85;;;37.53;;
54464;SDS011;40374;49.480;20.016;2023-03-01T09:18:51;85.60;;;39.55;;
54464;SDS011;40374;49.480;20.016;2023-03-01T09:21:21;96.07;;;38.97;;
54464;SDS011;40374;49.480;20.016;2023-03-01T09:24:06;78.32;;;36.78;;
54464;SDS011;40374;49.480;20.016;2023-03-01T09:26:38;78.03;;;35.13;;
54464;SDS011;40374;49.480;20.016;2023-03-01T09:29:06;82.75;;;37.53;;
54464;SDS011;40374;49.480;20.016;2023-03-01T09:31:36;65.30;;;33.53;;
54464;SDS011;40374;49.480;20.016;2023-03-01T09:34:04;70.50;;;32.78;;
54464;SDS011;40374;49.480;20.016;2023-03-01T09:36:32;70.65;;;34.75;;
54464;SDS011;40374;49.480;20.016;2023-03-01T09:39:00;85.47;;;38.78;;
54464;SDS011;40374;49.480;20.016;2023-03-01T09:44:21;69.18;;;32.60;;
54464;SDS011;40374;49.480;20.016;2023-03-01T09:46:56;66.45;;;30.80;;
54464;SDS011;40374;49.480;20.016;2023-03-01T09:49:28;65.65;;;29.67;;
54464;SDS011;40374;49.480;20.016;2023-03-01T09:54:48;60.83;;;29.33;;
54464;SDS011;40374;49.480;20.016;2023-03-01T10:00:18;59.30;;;28.77;;
54464;SDS011;40374;49.480;20.016;2023-03-01T10:05:47;57.10;;;24.85;;
54464;SDS011;40374;49.480;20.016;2023-03-01T10:08:27;63.53;;;25.70;;
54464;SDS011;40374;49.480;20.016;2023-03-01T10:11:03;53.90;;;26.08;;
54464;SDS011;40374;49.480;20.016;2023-03-01T10:19:23;46.13;;;22.98;;
54464;SDS011;40374;49.480;20.016;2023-03-01T10:22:02;46.03;;;22.30;;
54464;SDS011;40374;49.480;20.016;2023-03-01T10:24:38;44.25;;;21.05;;
54464;SDS011;40374;49.480;20.016;2023-03-01T10:27:07;48.83;;;20.63;;
54464;SDS011;40374;49.480;20.016;2023-03-01T10:29:52;56.45;;;19.65;;
54464;SDS011;40374;49.480;20.016;2023-03-01T10:32:29;37.85;;;18.15;;
54464;SDS011;40374;49.480;20.016;2023-03-01T10:34:58;39.92;;;17.83;;
54464;SDS011;40374;49.480;20.016;2023-03-01T10:37:25;33.85;;;16.63;;
54464;SDS011;40374;49.480;20.016;2023-03-01T10:39:55;43.05;;;18.48;;
54464;SDS011;40374;49.480;20.016;2023-03-01T10:42:31;51.90;;;19.00;;
54464;SDS011;40374;49.480;20.016;2023-03-01T10:48:10;43.17;;;18.45;;
54464;SDS011;40374;49.480;20.016;2023-03-01T10:50:43;41.47;;;17.77;;
54464;SDS011;40374;49.480;20.016;2023-03-01T10:53:20;34.60;;;15.82;;
54464;SDS011;40374;49.480;20.016;2023-03-01T10:55:57;31.88;;;14.23;;
54464;SDS011;40374;49.480;20.016;2023-03-01T10:58:32;38.08;;;15.38;;
54464;SDS011;40374;49.480;20.016;2023-03-01T11:01:02;29.30;;;14.77;;
54464;SDS011;40374;49.480;20.016;2023-03-01T11:03:37;31.65;;;14.55;;
54464;SDS011;40374;49.480;20.016;2023-03-01T11:19:44;36.42;;;16.58;;
54464;SDS011;40374;49.480;20.016;2023-03-01T11:22:28;32.55;;;16.58;;
54464;SDS011;40374;49.480;20.016;2023-03-01T11:25:00;30.48;;;16.52;;
54464;SDS011;40374;49.480;20.016;2023-03-01T11:27:43;32.67;;;16.35;;
54464;SDS011;40374;49.480;20.016;2023-03-01T11:30:16;33.63;;;15.25;;
54464;SDS011;40374;49.480;20.016;2023-03-01T11:32:47;31.52;;;16.58;;
54464;SDS011;40374;49.480;20.016;2023-03-01T11:35:30;31.38;;;14.95;;
54464;SDS011;40374;49.480;20.016;2023-03-01T12:08:18;28.55;;;15.13;;
